Time;durP1;ratioP1;P1;durP2;ratioP2;P2;SDS_P1;SDS_P2;PMS_P1;PMS_P2;Temp;Humidity;BMP_temperature;BMP_pressure;BME280_temperature;BME280_humidity;BME280_pressure;Samples;Min_cycle;Max_cycle;Signal;HPM_P1;HPM_P2
2021/11/22 00:00:11;;;;;;;3.63;1.93;;;5.40;99.90;;;;;;6121319;23;20927;-73
2021/11/22 00:02:37;;;;;;;2.83;2.47;;;5.40;99.90;;;;;;6120224;23;20598;-74
2021/11/22 00:05:03;;;;;;;1.90;1.80;;;5.40;99.90;;;;;;6121238;23;20921;-74
2021/11/22 00:07:31;;;;;;;1.80;1.70;;;5.30;99.90;;;;;;6121513;23;20655;-75
2021/11/22 00:09:56;;;;;;;2.03;1.83;;;5.30;99.90;;;;;;6120789;23;20587;-74
2021/11/22 00:12:29;;;;;;;2.20;2.00;;;5.30;99.90;;;;;;6117773;23;20933;-74
2021/11/22 00:14:55;;;;;;;2.00;1.80;;;5.30;99.90;;;;;;6121203;23;20135;-74
2021/11/22 00:17:20;;;;;;;2.60;2.03;;;5.30;99.90;;;;;;6121580;23;20616;-75
2021/11/22 00:19:46;;;;;;;2.00;1.80;;;5.30;99.90;;;;;;6121256;23;20683;-75
2021/11/22 00:22:14;;;;;;;1.93;1.80;;;5.20;99.90;;;;;;6120741;23;20202;-74
2021/11/22 00:24:42;;;;;;;2.00;1.80;;;5.20;99.90;;;;;;6120977;23;20155;-74
2021/11/22 00:27:13;;;;;;;1.87;1.77;;;5.20;99.90;;;;;;6119376;23;20593;-74
2021/11/22 00:29:41;;;;;;;1.87;1.40;;;5.20;99.90;;;;;;6122872;23;20501;-73
2021/11/22 00:32:13;;;;;;;2.33;1.50;;;5.20;99.90;;;;;;6122440;23;21154;-73
2021/11/22 00:34:43;;;;;;;1.90;1.80;;;5.10;99.90;;;;;;6122224;23;20530;-74
2021/11/22 00:37:14;;;;;;;3.30;2.00;;;5.10;99.90;;;;;;6119140;23;20614;-73
2021/11/22 00:39:42;;;;;;;2.00;1.80;;;5.20;99.90;;;;;;6122291;23;20495;-73
2021/11/22 00:42:10;;;;;;;2.20;2.00;;;5.10;99.90;;;;;;6122617;23;20614;-74
2021/11/22 00:44:37;;;;;;;1.60;1.50;;;5.10;99.90;;;;;;6122641;23;20545;-74
2021/11/22 00:47:12;;;;;;;1.43;1.33;;;5.10;99.90;;;;;;6122836;23;20573;-74
2021/11/22 00:49:40;;;;;;;1.57;1.30;;;5.10;99.90;;;;;;6123722;23;20498;-73
2021/11/22 00:52:09;;;;;;;2.83;1.43;;;5.00;99.90;;;;;;6121544;23;20671;-73
2021/11/22 00:54:35;;;;;;;1.20;1.10;;;5.00;99.90;;;;;;6120612;23;20601;-74
2021/11/22 00:57:02;;;;;;;1.30;1.20;;;5.20;99.90;;;;;;6121893;23;20661;-73
2021/11/22 00:59:29;;;;;;;1.23;1.13;;;5.00;99.90;;;;;;6122631;23;20151;-74
2021/11/22 01:02:00;;;;;;;1.80;1.43;;;5.00;99.90;;;;;;6119711;23;21174;-74
2021/11/22 01:04:26;;;;;;;1.50;1.40;;;4.90;99.90;;;;;;6120955;23;20987;-74
2021/11/22 01:06:55;;;;;;;1.87;1.50;;;4.90;99.90;;;;;;6120514;23;20609;-74
2021/11/22 01:09:20;;;;;;;1.43;1.20;;;4.90;99.90;;;;;;6121620;23;21157;-74
2021/11/22 01:11:49;;;;;;;1.70;1.60;;;4.80;99.90;;;;;;6117772;23;20716;-74
2021/11/22 01:14:17;;;;;;;1.97;1.47;;;4.80;99.90;;;;;;6121236;23;20163;-74
2021/11/22 01:16:45;;;;;;;1.30;1.20;;;4.80;99.90;;;;;;6121399;23;20602;-74
2021/11/22 01:19:11;;;;;;;1.33;1.23;;;4.80;99.90;;;;;;6123230;23;20558;-73
2021/11/22 01:21:37;;;;;;;3.30;1.73;;;4.80;99.90;;;;;;6120210;23;20668;-73
2021/11/22 01:24:05;;;;;;;2.00;1.83;;;4.70;99.90;;;;;;6120999;23;20162;-74
2021/11/22 01:26:31;;;;;;;4.83;1.40;;;4.70;99.90;;;;;;6122639;23;20174;-74
2021/11/22 01:28:56;;;;;;;2.80;1.47;;;4.60;99.90;;;;;;6120917;23;20939;-74
2021/11/22 01:31:22;;;;;;;1.20;1.10;;;4.70;99.90;;;;;;6120583;23;20632;-73
2021/11/22 01:33:48;;;;;;;1.33;1.23;;;4.60;99.90;;;;;;6120977;23;20536;-74
2021/11/22 01:36:14;;;;;;;3.00;1.30;;;4.80;99.90;;;;;;6121449;23;20589;-73
2021/11/22 01:38:40;;;;;;;1.57;1.20;;;4.70;99.90;;;;;;6118937;23;20729;-73
2021/11/22 01:41:06;;;;;;;1.57;1.47;;;4.60;99.90;;;;;;6120851;23;20161;-74
2021/11/22 01:43:37;;;;;;;1.30;1.13;;;4.60;99.90;;;;;;6121646;23;20242;-73
2021/11/22 01:46:03;;;;;;;3.60;1.20;;;4.60;99.90;;;;;;6121503;23;20637;-73
2021/11/22 01:48:33;;;;;;;1.27;1.17;;;4.60;99.90;;;;;;6121815;23;20589;-73
2021/11/22 01:50:58;;;;;;;2.80;1.40;;;4.50;99.90;;;;;;6122364;23;20163;-74
2021/11/22 01:53:24;;;;;;;1.73;1.40;;;4.50;99.90;;;;;;6120944;23;20622;-74
2021/11/22 01:55:53;;;;;;;1.70;1.20;;;4.50;99.90;;;;;;6122562;23;20190;-73
2021/11/22 01:58:21;;;;;;;1.30;1.20;;;4.50;99.90;;;;;;6121346;23;20677;-73
2021/11/22 02:00:55;;;;;;;1.73;1.07;;;4.50;99.90;;;;;;6144765;23;20566;-74
2021/11/22 02:03:26;;;;;;;2.87;1.77;;;4.50;99.90;;;;;;6121483;23;20594;-73
2021/11/22 02:05:54;;;;;;;3.07;1.57;;;4.50;99.90;;;;;;6120954;23;20590;-73
2021/11/22 02:08:25;;;;;;;2.83;1.40;;;4.50;99.90;;;;;;6119940;23;21036;-74
2021/11/22 02:10:51;;;;;;;1.30;1.20;;;4.50;99.90;;;;;;6118351;23;20574;-74
2021/11/22 02:13:20;;;;;;;1.50;1.40;;;4.40;99.90;;;;;;6117891;23;20620;-73
2021/11/22 02:15:53;;;;;;;1.50;1.40;;;4.50;99.90;;;;;;6122204;23;20597;-73
2021/11/22 02:18:19;;;;;;;3.53;2.67;;;4.40;99.90;;;;;;6121841;23;20499;-74
2021/11/22 02:20:46;;;;;;;1.70;1.60;;;4.60;99.90;;;;;;6121356;23;20554;-74
2021/11/22 02:23:15;;;;;;;4.00;1.90;;;4.40;99.90;;;;;;6119047;23;20602;-73
2021/11/22 02:25:56;;;;;;;2.00;1.80;;;4.30;99.90;;;;;;6119148;23;20677;-74
2021/11/22 02:28:24;;;;;;;1.77;1.60;;;4.30;99.90;;;;;;6118649;23;20588;-74
2021/11/22 02:30:55;;;;;;;2.57;1.90;;;4.30;99.90;;;;;;6121490;23;20564;-73
2021/11/22 02:33:27;;;;;;;1.80;1.70;;;4.30;99.90;;;;;;6119937;23;20626;-73
2021/11/22 02:35:58;;;;;;;2.13;1.93;;;4.20;99.90;;;;;;6120232;23;20625;-73
2021/11/22 02:38:33;;;;;;;3.03;1.70;;;4.20;99.90;;;;;;6118665;23;20601;-73
2021/11/22 02:41:03;;;;;;;2.20;1.93;;;4.20;99.90;;;;;;6120708;23;20498;-73
2021/11/22 02:43:37;;;;;;;2.03;1.90;;;4.10;99.90;;;;;;6121049;23;20916;-73
2021/11/22 02:46:08;;;;;;;2.43;1.77;;;4.10;99.90;;;;;;6120950;23;20949;-73
2021/11/22 02:48:36;;;;;;;2.43;1.83;;;4.10;99.90;;;;;;6119718;23;20626;-74
2021/11/22 02:51:05;;;;;;;5.13;2.10;;;4.00;99.90;;;;;;6118361;23;20570;-73
2021/11/22 02:53:32;;;;;;;2.57;2.20;;;4.00;99.90;;;;;;6120005;23;20629;-73
2021/11/22 02:56:03;;;;;;;2.10;1.90;;;4.00;99.90;;;;;;6122018;23;20618;-73
2021/11/22 02:58:30;;;;;;;1.83;1.67;;;4.00;99.90;;;;;;6120923;23;20694;-74
2021/11/22 03:00:59;;;;;;;1.90;1.80;;;4.00;99.90;;;;;;6122195;23;20585;-74
2021/11/22 03:03:31;;;;;;;2.30;1.90;;;4.00;99.90;;;;;;6121975;23;21219;-73
2021/11/22 03:06:11;;;;;;;2.67;1.70;;;3.90;99.90;;;;;;6120985;23;20602;-73
2021/11/22 03:08:42;;;;;;;1.53;1.43;;;3.90;99.90;;;;;;6119367;23;20558;-73
2021/11/22 03:11:11;;;;;;;2.30;1.70;;;3.90;99.90;;;;;;6120974;23;21037;-73
2021/11/22 03:13:38;;;;;;;1.83;1.73;;;3.80;99.90;;;;;;6120336;23;20908;-73
2021/11/22 03:16:04;;;;;;;2.90;2.03;;;3.80;99.90;;;;;;6119694;23;20676;-73
2021/11/22 03:18:35;;;;;;;2.03;1.77;;;3.80;99.90;;;;;;6122158;23;20566;-74
2021/11/22 03:21:01;;;;;;;2.03;1.70;;;3.80;99.90;;;;;;6121006;23;20534;-73
2021/11/22 03:23:34;;;;;;;2.20;1.63;;;3.70;99.90;;;;;;6121444;23;20610;-73
2021/11/22 03:26:03;;;;;;;1.97;1.77;;;3.80;99.90;;;;;;6122344;23;20597;-73
2021/11/22 03:28:30;;;;;;;1.73;1.63;;;3.70;99.90;;;;;;6145469;23;21092;-74
2021/11/22 03:30:56;;;;;;;2.23;1.60;;;3.70;99.90;;;;;;6118412;23;20633;-74
2021/11/22 03:33:27;;;;;;;1.43;1.33;;;3.70;99.90;;;;;;6118627;23;20622;-74
2021/11/22 03:36:01;;;;;;;1.60;1.50;;;3.70;99.90;;;;;;6122063;23;20233;-74
2021/11/22 03:38:30;;;;;;;1.40;1.30;;;3.70;99.90;;;;;;6143351;23;20562;-74
2021/11/22 03:40:56;;;;;;;4.27;1.80;;;3.60;99.90;;;;;;6120697;23;21122;-74
2021/11/22 03:43:32;;;;;;;2.70;1.70;;;3.60;99.90;;;;;;6122010;23;20590;-74
2021/11/22 03:46:03;;;;;;;4.10;1.70;;;3.60;99.90;;;;;;6120374;23;21217;-73
2021/11/22 03:48:30;;;;;;;1.90;1.80;;;3.60;99.90;;;;;;6122064;23;20506;-74
2021/11/22 03:51:02;;;;;;;1.77;1.63;;;3.60;99.90;;;;;;6120249;23;20566;-74
2021/11/22 03:53:28;;;;;;;2.00;1.80;;;3.60;99.90;;;;;;6120235;23;20951;-75
2021/11/22 03:55:56;;;;;;;2.00;1.80;;;3.50;99.90;;;;;;6121192;23;20661;-74
2021/11/22 03:58:22;;;;;;;2.93;1.53;;;3.70;99.90;;;;;;6120744;23;20542;-74
2021/11/22 04:00:51;;;;;;;1.73;1.60;;;3.50;99.90;;;;;;6122452;23;20649;-74
2021/11/22 04:03:17;;;;;;;2.80;2.00;;;3.50;99.90;;;;;;6121553;23;20206;-74
2021/11/22 04:05:45;;;;;;;2.20;1.60;;;3.50;99.90;;;;;;6121729;23;20629;-73
2021/11/22 04:08:10;;;;;;;2.30;1.70;;;3.50;99.90;;;;;;6123074;23;21087;-74
2021/11/22 04:10:37;;;;;;;2.10;1.90;;;3.50;99.90;;;;;;6123086;23;20542;-74
2021/11/22 04:13:12;;;;;;;2.03;1.90;;;3.50;99.90;;;;;;6121548;23;20214;-74
2021/11/22 04:15:39;;;;;;;2.00;1.90;;;3.50;99.90;;;;;;6123859;23;20545;-74
2021/11/22 04:18:05;;;;;;;2.67;1.70;;;3.50;99.90;;;;;;6124025;23;20573;-74
2021/11/22 04:20:32;;;;;;;3.10;2.40;;;3.70;99.90;;;;;;6146943;23;20561;-74
2021/11/22 04:23:05;;;;;;;1.97;1.77;;;3.50;99.90;;;;;;6121837;23;20656;-74
2021/11/22 04:25:33;;;;;;;2.10;2.00;;;3.50;99.90;;;;;;6122300;23;20550;-74
2021/11/22 04:27:59;;;;;;;1.80;1.70;;;3.50;99.90;;;;;;6121404;23;20573;-74
2021/11/22 04:30:30;;;;;;;1.80;1.70;;;3.50;99.90;;;;;;6122323;23;20534;-75
2021/11/22 04:33:02;;;;;;;1.87;1.77;;;3.50;99.90;;;;;;6118831;23;20617;-75
2021/11/22 04:35:30;;;;;;;2.23;2.00;;;3.50;99.90;;;;;;6122489;23;20580;-74
2021/11/22 04:37:57;;;;;;;2.20;2.00;;;3.50;99.90;;;;;;6123037;23;20621;-74
2021/11/22 04:40:23;;;;;;;3.27;1.70;;;3.50;99.90;;;;;;6120299;23;20562;-74
2021/11/22 04:42:49;;;;;;;5.00;2.10;;;3.40;99.90;;;;;;6122082;23;20602;-74
2021/11/22 04:45:41;;;;;;;2.87;2.10;;;3.40;99.90;;;;;;6122411;23;20616;-74
2021/11/22 04:48:17;;;;;;;3.03;2.13;;;3.40;99.90;;;;;;6121923;23;20566;-74
2021/11/22 04:50:43;;;;;;;3.87;1.97;;;3.40;99.90;;;;;;6122800;23;21180;-74
2021/11/22 04:53:11;;;;;;;2.17;1.90;;;3.40;99.90;;;;;;6121786;23;20621;-74
2021/11/22 04:55:38;;;;;;;2.10;1.90;;;3.40;99.90;;;;;;6121841;23;20244;-74
2021/11/22 04:58:09;;;;;;;4.03;2.53;;;3.50;99.90;;;;;;6146492;23;20570;-75
2021/11/22 05:00:46;;;;;;;;;;;;;;;;;;;;;
2021/11/22 05:03:12;;;;;;;2.57;2.37;;;3.40;99.90;;;;;;6121325;23;20680;-74
2021/11/22 05:05:38;;;;;;;3.63;2.70;;;3.30;99.90;;;;;;6145884;23;20581;-74
2021/11/22 05:08:08;;;;;;;3.53;2.60;;;3.40;99.90;;;;;;6121297;23;21087;-74
2021/11/22 05:10:41;;;;;;;3.03;2.40;;;3.30;99.90;;;;;;6120830;23;20654;-74
2021/11/22 05:13:08;;;;;;;2.40;2.20;;;3.40;99.90;;;;;;6119530;23;20725;-74
2021/11/22 05:15:41;;;;;;;2.50;2.30;;;3.40;99.90;;;;;;6122907;23;20542;-74
2021/11/22 05:18:09;;;;;;;2.80;2.50;;;3.30;99.90;;;;;;6122598;23;21106;-74
2021/11/22 05:20:36;;;;;;;6.00;2.30;;;3.30;99.90;;;;;;6147002;23;20636;-74
2021/11/22 05:23:02;;;;;;;3.40;2.30;;;3.30;99.90;;;;;;6121663;23;20600;-74
2021/11/22 05:25:28;;;;;;;2.50;2.30;;;3.30;99.90;;;;;;6121660;23;20558;-74
2021/11/22 05:27:57;;;;;;;2.93;2.60;;;3.30;99.90;;;;;;6121692;23;20569;-74
2021/11/22 05:30:26;;;;;;;2.47;2.27;;;3.30;99.90;;;;;;6121248;23;20608;-74
2021/11/22 05:32:54;;;;;;;2.70;2.40;;;3.30;99.90;;;;;;6119231;23;20625;-74
2021/11/22 05:35:19;;;;;;;3.20;2.90;;;3.30;99.90;;;;;;6121649;23;20577;-74
2021/11/22 05:37:47;;;;;;;3.23;2.93;;;3.30;99.90;;;;;;6119815;23;20954;-74
2021/11/22 05:40:24;;;;;;;3.30;3.00;;;3.20;99.90;;;;;;6118032;23;20166;-74
2021/11/22 05:42:53;;;;;;;4.27;2.87;;;3.20;99.90;;;;;;6120297;23;20936;-74
2021/11/22 05:45:19;;;;;;;8.33;3.57;;;3.40;99.90;;;;;;6120965;23;20566;-74
2021/11/22 05:47:46;;;;;;;3.20;2.90;;;3.20;99.90;;;;;;6122796;23;21123;-74
2021/11/22 05:50:15;;;;;;;3.37;3.07;;;3.20;99.90;;;;;;6120357;23;20162;-74
2021/11/22 05:52:55;;;;;;;3.23;2.93;;;3.20;99.90;;;;;;6120746;23;20665;-74
2021/11/22 05:55:45;;;;;;;3.50;3.00;;;3.20;99.90;;;;;;6118449;23;20557;-75
2021/11/22 05:58:14;;;;;;;3.20;2.90;;;3.20;99.90;;;;;;6119698;23;20577;-74
2021/11/22 06:00:41;;;;;;;3.43;3.13;;;3.20;99.90;;;;;;6121364;23;20952;-75
2021/11/22 06:03:09;;;;;;;3.47;2.80;;;3.10;99.90;;;;;;6144138;23;20943;-74
2021/11/22 06:05:35;;;;;;;5.90;3.30;;;3.10;99.90;;;;;;6122766;23;20514;-75
2021/11/22 06:08:09;;;;;;;3.60;3.30;;;3.10;99.90;;;;;;6121845;23;20539;-75
2021/11/22 06:10:35;;;;;;;3.33;3.03;;;3.10;99.90;;;;;;6109822;23;20842;-74
2021/11/22 06:13:03;;;;;;;4.87;4.47;;;3.10;99.90;;;;;;6109747;23;20626;-75
2021/11/22 06:15:29;;;;;;;4.40;2.90;;;3.10;99.90;;;;;;6114368;23;20598;-74
2021/11/22 06:17:57;;;;;;;6.00;3.47;;;3.10;99.90;;;;;;6119160;23;21238;-75
2021/11/22 06:20:24;;;;;;;3.60;3.10;;;3.10;99.90;;;;;;6120709;23;20741;-75
2021/11/22 06:22:50;;;;;;;6.60;3.47;;;3.00;99.90;;;;;;6118821;23;21158;-75
2021/11/22 06:25:18;;;;;;;5.50;3.60;;;3.10;99.90;;;;;;6121131;23;20530;-74
2021/11/22 06:27:54;;;;;;;3.77;3.37;;;3.10;99.90;;;;;;6119434;23;20182;-75
2021/11/22 06:30:20;;;;;;;4.43;4.00;;;3.00;99.90;;;;;;6117200;23;20650;-75
2021/11/22 06:32:47;;;;;;;4.97;3.90;;;3.00;99.90;;;;;;6117661;23;20962;-75
2021/11/22 06:35:13;;;;;;;4.60;4.20;;;3.00;99.90;;;;;;6121415;23;20538;-75
2021/11/22 06:37:39;;;;;;;4.30;3.90;;;3.00;99.90;;;;;;6118722;23;20620;-75
2021/11/22 06:40:07;;;;;;;3.67;3.33;;;3.00;99.90;;;;;;6118786;23;21095;-75
2021/11/22 06:42:33;;;;;;;4.93;4.10;;;3.00;99.90;;;;;;6117530;23;20261;-75
2021/11/22 06:44:59;;;;;;;4.77;3.87;;;3.00;99.90;;;;;;6118502;23;20883;-75
2021/11/22 06:47:25;;;;;;;4.57;4.17;;;2.90;99.90;;;;;;6117469;23;20590;-75
2021/11/22 06:49:52;;;;;;;5.80;3.73;;;2.90;99.90;;;;;;6118360;23;20176;-74
2021/11/22 06:52:21;;;;;;;4.00;3.60;;;2.90;99.90;;;;;;6118163;23;21164;-75
2021/11/22 06:54:48;;;;;;;4.23;3.80;;;2.90;99.90;;;;;;6118944;23;20643;-75
2021/11/22 06:57:14;;;;;;;3.80;3.50;;;2.90;99.90;;;;;;6119995;23;20674;-75
2021/11/22 06:59:41;;;;;;;8.03;4.50;;;2.90;99.90;;;;;;6123148;23;20527;-75
2021/11/22 07:02:12;;;;;;;4.70;4.07;;;2.90;99.90;;;;;;6121594;23;20971;-74
2021/11/22 07:04:38;;;;;;;4.30;3.70;;;3.00;99.90;;;;;;6121400;23;20550;-75
2021/11/22 07:07:04;;;;;;;4.83;3.67;;;2.90;99.90;;;;;;6120591;23;20614;-74
2021/11/22 07:09:30;;;;;;;4.80;3.80;;;3.00;99.90;;;;;;6123269;23;20873;-74
2021/11/22 07:11:55;;;;;;;5.37;3.87;;;3.00;99.90;;;;;;6120728;23;20198;-75
2021/11/22 07:14:21;;;;;;;4.40;4.00;;;3.10;99.90;;;;;;6122996;23;20498;-75
2021/11/22 07:16:49;;;;;;;5.17;4.20;;;3.10;99.90;;;;;;6122906;23;20179;-75
2021/11/22 07:19:16;;;;;;;6.27;4.60;;;2.90;99.90;;;;;;6123012;23;20541;-75
2021/11/22 07:21:41;;;;;;;5.90;4.10;;;2.90;99.90;;;;;;6121925;23;20593;-75
2021/11/22 07:24:07;;;;;;;5.27;4.77;;;3.00;99.90;;;;;;6121160;23;21018;-75
2021/11/22 07:26:33;;;;;;;5.00;4.57;;;2.90;99.90;;;;;;6123181;23;20189;-75
2021/11/22 07:28:59;;;;;;;5.90;4.77;;;3.10;99.90;;;;;;6120465;23;20566;-75
2021/11/22 07:31:25;;;;;;;6.30;4.63;;;3.10;99.90;;;;;;6121940;23;20627;-75
2021/11/22 07:33:51;;;;;;;5.00;4.40;;;3.00;99.90;;;;;;6119474;23;20636;-75
2021/11/22 07:36:17;;;;;;;6.47;4.93;;;3.00;99.90;;;;;;6120923;23;20205;-74
2021/11/22 07:38:42;;;;;;;5.83;4.40;;;3.00;99.90;;;;;;6121445;23;20154;-75
2021/11/22 07:41:08;;;;;;;5.93;4.60;;;3.00;99.90;;;;;;6142447;23;20173;-74
2021/11/22 07:43:34;;;;;;;6.23;4.83;;;3.00;99.90;;;;;;6119920;23;20501;-74
2021/11/22 07:46:00;;;;;;;7.13;5.73;;;3.00;99.90;;;;;;6121285;23;20609;-75
2021/11/22 07:48:30;;;;;;;6.50;4.97;;;3.10;99.90;;;;;;6119248;23;20628;-74
2021/11/22 07:50:55;;;;;;;6.40;5.40;;;3.10;99.90;;;;;;6119676;23;20911;-75
2021/11/22 07:53:21;;;;;;;6.13;5.37;;;3.10;99.90;;;;;;6118663;23;21352;-75
2021/11/22 07:55:47;;;;;;;6.37;5.20;;;3.10;99.90;;;;;;6119646;23;20197;-74
2021/11/22 07:58:13;;;;;;;8.07;5.30;;;3.10;99.90;;;;;;6117448;23;20218;-75
2021/11/22 08:00:39;;;;;;;5.83;4.77;;;3.10;99.90;;;;;;6117230;23;20912;-75
2021/11/22 08:03:05;;;;;;;6.73;5.73;;;3.20;99.90;;;;;;6118117;23;20609;-75
2021/11/22 08:05:32;;;;;;;5.83;4.93;;;3.20;99.90;;;;;;6118968;23;20173;-75
2021/11/22 08:07:58;;;;;;;5.73;5.13;;;3.20;99.90;;;;;;6120811;23;20162;-75
2021/11/22 08:10:28;;;;;;;9.00;5.80;;;3.20;99.90;;;;;;6122064;23;20534;-75
2021/11/22 08:13:00;;;;;;;5.70;5.20;;;3.30;99.90;;;;;;6120309;23;21030;-75
2021/11/22 08:15:28;;;;;;;6.20;5.60;;;3.30;99.90;;;;;;6122140;23;20505;-74
2021/11/22 08:17:54;;;;;;;6.93;5.80;;;3.30;99.90;;;;;;6122563;23;20717;-74
2021/11/22 08:20:22;;;;;;;6.73;5.43;;;3.30;99.90;;;;;;6122328;23;20526;-74
2021/11/22 08:22:49;;;;;;;8.00;5.33;;;3.40;99.90;;;;;;6118336;23;20980;-75
2021/11/22 08:25:17;;;;;;;7.23;5.40;;;3.40;99.90;;;;;;6121747;23;21060;-75
2021/11/22 08:27:43;;;;;;;5.80;5.03;;;3.40;99.90;;;;;;6119609;23;20616;-75
2021/11/22 08:30:13;;;;;;;6.73;5.73;;;3.50;99.90;;;;;;6121340;23;20562;-76
2021/11/22 08:32:41;;;;;;;15.13;5.87;;;3.50;99.90;;;;;;6119081;23;20625;-75
2021/11/22 08:35:07;;;;;;;9.60;6.40;;;3.50;99.90;;;;;;6121335;23;20527;-75
2021/11/22 08:37:33;;;;;;;6.37;5.33;;;3.50;99.90;;;;;;6122195;23;20810;-74
2021/11/22 08:39:59;;;;;;;8.53;6.27;;;3.60;99.90;;;;;;6120844;23;20613;-75
2021/11/22 08:42:26;;;;;;;6.80;6.03;;;3.60;99.90;;;;;;6117981;23;20597;-75
2021/11/22 08:44:52;;;;;;;6.03;5.20;;;3.60;99.90;;;;;;6119943;23;20571;-75
2021/11/22 08:47:18;;;;;;;7.47;5.80;;;3.70;99.90;;;;;;6123914;23;20628;-75
2021/11/22 08:49:45;;;;;;;7.37;5.80;;;3.70;99.90;;;;;;6123560;23;21012;-75
2021/11/22 08:52:11;;;;;;;5.80;5.10;;;3.70;99.90;;;;;;6120691;23;20720;-75
2021/11/22 08:54:37;;;;;;;7.97;6.33;;;3.80;99.90;;;;;;6122430;23;20566;-75
2021/11/22 08:57:06;;;;;;;6.73;6.03;;;3.80;99.90;;;;;;6122706;23;20582;-75
2021/11/22 08:59:32;;;;;;;7.53;4.90;;;3.90;99.90;;;;;;6123036;23;20558;-74
2021/11/22 09:01:57;;;;;;;8.70;5.17;;;3.90;99.90;;;;;;6121002;23;20604;-74
2021/11/22 09:04:24;;;;;;;6.73;5.50;;;4.00;99.90;;;;;;6123801;23;20611;-74
2021/11/22 09:06:51;;;;;;;6.23;5.13;;;4.00;99.90;;;;;;6147095;23;20268;-74
2021/11/22 09:09:18;;;;;;;8.23;5.30;;;4.00;99.90;;;;;;6123217;23;20693;-73
2021/11/22 09:11:45;;;;;;;7.67;5.13;;;4.10;99.90;;;;;;6120354;23;20598;-74
2021/11/22 09:14:12;;;;;;;6.97;5.03;;;4.10;99.90;;;;;;6122386;23;20562;-73
2021/11/22 09:16:38;;;;;;;5.00;4.50;;;4.20;99.90;;;;;;6122422;23;20606;-73
2021/11/22 09:19:04;;;;;;;6.90;5.13;;;4.20;99.90;;;;;;6124698;23;20549;-73
2021/11/22 09:21:31;;;;;;;6.20;5.40;;;4.20;99.90;;;;;;6146562;23;20590;-73
2021/11/22 09:24:00;;;;;;;7.90;5.20;;;4.30;99.90;;;;;;6125871;23;20178;-74
2021/11/22 09:26:27;;;;;;;5.23;4.70;;;4.30;99.90;;;;;;6125295;23;21050;-74
2021/11/22 09:28:52;;;;;;;6.53;5.53;;;4.40;99.90;;;;;;6123166;23;20949;-73
2021/11/22 09:31:19;;;;;;;5.90;5.30;;;4.50;99.90;;;;;;6123322;23;20546;-74
2021/11/22 09:33:46;;;;;;;7.20;5.40;;;4.50;99.90;;;;;;6123202;23;20197;-74
2021/11/22 09:36:12;;;;;;;5.90;5.13;;;4.60;99.90;;;;;;6122504;23;20596;-74
2021/11/22 09:38:38;;;;;;;7.27;5.50;;;4.60;99.90;;;;;;6122304;23;20562;-74
2021/11/22 09:41:04;;;;;;;5.60;5.10;;;4.70;99.90;;;;;;6122792;23;20535;-74
2021/11/22 09:43:30;;;;;;;5.30;4.83;;;4.80;99.90;;;;;;6123273;23;20538;-74
2021/11/22 09:45:56;;;;;;;5.90;5.40;;;4.80;99.90;;;;;;6123954;23;20585;-74
2021/11/22 09:48:22;;;;;;;7.43;5.70;;;4.90;99.90;;;;;;6127150;23;20687;-74
2021/11/22 09:50:48;;;;;;;5.00;4.60;;;4.90;99.90;;;;;;6127190;23;20559;-76
2021/11/22 09:53:15;;;;;;;7.90;5.47;;;5.00;99.90;;;;;;6125444;23;20625;-75
2021/11/22 09:55:40;;;;;;;5.77;5.00;;;5.10;99.90;;;;;;6126112;23;20159;-75
2021/11/22 09:58:08;;;;;;;6.57;4.30;;;5.10;99.90;;;;;;6123254;23;20581;-75
2021/11/22 10:00:47;;;;;;;4.90;4.17;;;5.20;99.90;;;;;;6124543;23;20538;-75
2021/11/22 10:03:19;;;;;;;4.13;3.70;;;5.20;99.90;;;;;;6122825;23;20688;-75
2021/11/22 10:05:45;;;;;;;5.70;4.73;;;5.30;99.90;;;;;;6122201;23;20675;-75
2021/11/22 10:08:19;;;;;;;5.23;3.50;;;5.30;99.90;;;;;;6124097;23;20573;-75
2021/11/22 10:10:48;;;;;;;5.60;3.40;;;5.40;99.90;;;;;;6123352;23;20522;-75
2021/11/22 10:13:33;;;;;;;4.17;3.77;;;5.50;99.90;;;;;;6120734;23;21194;-75
2021/11/22 10:16:21;;;;;;;4.47;3.87;;;5.50;99.90;;;;;;6122624;23;20586;-75
2021/11/22 10:18:59;;;;;;;5.27;4.47;;;5.50;99.90;;;;;;6122812;23;20641;-75
2021/11/22 10:21:35;;;;;;;6.80;4.20;;;5.70;99.90;;;;;;6120667;23;20608;-75
2021/11/22 10:24:08;;;;;;;4.00;3.60;;;5.70;99.90;;;;;;6124310;23;20509;-75
2021/11/22 10:26:48;;;;;;;4.40;3.80;;;5.80;99.90;;;;;;6124853;23;20601;-75
2021/11/22 10:29:27;;;;;;;4.00;3.60;;;5.80;99.90;;;;;;6121823;23;20957;-75
2021/11/22 10:31:55;;;;;;;4.07;3.60;;;5.90;99.90;;;;;;6121057;23;20608;-75
2021/11/22 10:34:21;;;;;;;5.07;3.60;;;6.00;99.90;;;;;;6123632;23;20571;-75
2021/11/22 10:37:01;;;;;;;6.90;3.33;;;6.10;99.90;;;;;;6120038;23;20614;-75
2021/11/22 10:39:28;;;;;;;5.20;3.90;;;6.20;99.90;;;;;;6123430;23;20568;-75
2021/11/22 10:41:55;;;;;;;3.37;3.07;;;6.30;99.90;;;;;;6120045;23;20598;-75
2021/11/22 10:44:21;;;;;;;4.07;2.47;;;6.30;99.90;;;;;;6122576;23;20977;-75
2021/11/22 10:46:56;;;;;;;4.03;3.17;;;6.40;99.90;;;;;;6122443;23;20570;-75
2021/11/22 10:49:40;;;;;;;4.77;3.27;;;6.50;99.90;;;;;;6122795;23;20863;-74
2021/11/22 10:52:14;;;;;;;2.83;2.63;;;6.60;99.90;;;;;;6118752;23;20632;-74
2021/11/22 10:55:02;;;;;;;3.27;2.23;;;6.70;99.90;;;;;;6120160;23;20637;-74
2021/11/22 10:57:37;;;;;;;2.77;2.10;;;6.70;99.90;;;;;;6121192;23;20598;-74
2021/11/22 11:00:38;;;;;;;2.80;2.33;;;6.80;99.90;;;;;;6122646;23;20939;-74
2021/11/22 11:03:06;;;;;;;3.53;2.50;;;6.90;99.90;;;;;;6060508;23;20607;-74
2021/11/22 11:05:38;;;;;;;2.80;2.40;;;7.00;99.90;;;;;;6060331;23;20583;-74
2021/11/22 11:08:10;;;;;;;3.67;2.87;;;7.00;99.90;;;;;;6060758;23;20639;-74
2021/11/22 11:10:39;;;;;;;3.30;3.00;;;7.10;99.90;;;;;;6061622;23;20567;-74
2021/11/22 11:13:06;;;;;;;3.50;2.87;;;7.10;99.90;;;;;;6059223;23;20615;-74
2021/11/22 11:15:32;;;;;;;3.80;2.70;;;7.20;99.90;;;;;;6036920;23;20607;-74
2021/11/22 11:17:58;;;;;;;2.30;2.10;;;7.20;99.90;;;;;;6061829;23;20567;-74
2021/11/22 11:20:24;;;;;;;3.77;2.27;;;7.20;99.90;;;;;;6037583;23;20587;-74
2021/11/22 11:22:51;;;;;;;2.60;2.40;;;7.30;99.90;;;;;;6061391;23;20596;-74
2021/11/22 11:25:21;;;;;;;3.70;2.97;;;7.30;99.90;;;;;;6062669;23;20548;-74
2021/11/22 11:27:46;;;;;;;2.77;1.80;;;7.30;99.90;;;;;;6038090;23;20611;-74
2021/11/22 11:30:15;;;;;;;4.07;1.93;;;7.40;99.90;;;;;;6037530;23;21005;-73
2021/11/22 11:32:41;;;;;;;3.80;2.30;;;7.40;99.90;;;;;;6037137;23;21178;-74
2021/11/22 11:35:20;;;;;;;2.30;1.93;;;7.40;99.90;;;;;;6062016;23;20652;-74
2021/11/22 11:38:04;;;;;;;2.97;1.97;;;7.40;99.90;;;;;;6037274;23;20627;-74
2021/11/22 11:40:58;;;;;;;2.03;1.73;;;7.40;99.90;;;;;;6087506;23;20977;-74
2021/11/22 11:43:54;;;;;;;1.63;1.50;;;7.50;99.90;;;;;;6119189;23;20600;-74
2021/11/22 11:46:43;;;;;;;2.10;1.50;;;7.50;99.90;;;;;;6119520;23;20593;-74
2021/11/22 11:49:12;;;;;;;4.33;1.70;;;7.50;99.90;;;;;;6121804;23;20558;-74
2021/11/22 11:51:47;;;;;;;2.20;2.00;;;7.50;99.90;;;;;;6119431;23;20689;-74
2021/11/22 11:54:20;;;;;;;2.70;1.90;;;7.50;99.90;;;;;;6120785;23;20585;-74
2021/11/22 11:56:47;;;;;;;2.57;1.93;;;7.60;99.90;;;;;;6120882;23;20602;-74
2021/11/22 11:59:37;;;;;;;3.23;2.27;;;7.70;99.90;;;;;;6122889;23;20617;-74
2021/11/22 12:02:11;;;;;;;2.00;1.67;;;8.00;99.90;;;;;;6120202;23;20585;-73
2021/11/22 12:04:56;;;;;;;3.60;2.10;;;8.20;99.90;;;;;;6121603;23;20621;-73
2021/11/22 12:07:44;;;;;;;2.03;1.17;;;8.30;99.90;;;;;;6123254;23;20589;-73
2021/11/22 12:10:27;;;;;;;1.70;1.30;;;8.30;99.90;;;;;;6121587;23;21083;-74
2021/11/22 12:13:11;;;;;;;1.97;1.23;;;8.30;99.90;;;;;;6119896;23;20617;-74
2021/11/22 12:15:36;;;;;;;1.90;1.40;;;8.30;99.90;;;;;;6122220;23;20501;-74
2021/11/22 12:18:28;;;;;;;1.60;1.00;;;8.50;99.90;;;;;;6121444;23;20868;-74
2021/11/22 12:21:05;;;;;;;1.47;1.37;;;8.60;99.90;;;;;;6118932;23;20166;-74
2021/11/22 12:23:48;;;;;;;3.17;1.50;;;8.80;99.90;;;;;;6123365;23;20574;-74
2021/11/22 12:26:27;;;;;;;1.20;1.10;;;8.90;99.90;;;;;;6122358;23;20586;-74
2021/11/22 12:28:54;;;;;;;1.80;0.97;;;9.00;99.90;;;;;;6123813;23;20502;-74
2021/11/22 12:31:26;;;;;;;2.27;0.90;;;9.10;99.90;;;;;;6121158;23;20597;-74
2021/11/22 12:34:07;;;;;;;1.20;0.93;;;9.20;99.90;;;;;;6123878;23;20957;-74
2021/11/22 12:36:36;;;;;;;1.20;1.10;;;9.20;99.90;;;;;;6122174;23;20597;-74
2021/11/22 12:39:15;;;;;;;1.67;0.90;;;9.30;99.90;;;;;;6120550;23;20912;-74
2021/11/22 12:41:41;;;;;;;3.07;1.30;;;9.40;99.90;;;;;;6120894;23;20684;-74
2021/11/22 12:44:16;;;;;;;3.30;1.30;;;9.40;99.90;;;;;;6147839;23;20641;-74
2021/11/22 12:46:47;;;;;;;1.77;1.40;;;9.30;99.90;;;;;;6122418;23;21177;-74
2021/11/22 12:49:36;;;;;;;1.43;1.10;;;9.20;99.90;;;;;;6121595;23;20581;-74
2021/11/22 12:52:15;;;;;;;1.80;1.33;;;9.20;99.90;;;;;;6123230;23;20586;-74
2021/11/22 12:54:49;;;;;;;3.87;1.23;;;9.10;99.90;;;;;;6121934;23;20569;-74
2021/11/22 12:57:25;;;;;;;1.20;1.10;;;9.00;99.90;;;;;;6123309;23;20589;-74
2021/11/22 13:00:11;;;;;;;4.33;1.57;;;9.00;99.90;;;;;;6122165;23;20509;-74
2021/11/22 13:02:42;;;;;;;2.00;1.20;;;9.00;99.90;;;;;;6116205;23;20601;-74
2021/11/22 13:05:08;;;;;;;2.47;1.53;;;9.00;99.90;;;;;;6119450;23;20578;-74
2021/11/22 13:07:34;;;;;;;2.53;1.80;;;9.00;99.90;;;;;;6120964;23;20580;-74
2021/11/22 13:10:27;;;;;;;2.30;1.80;;;9.00;99.90;;;;;;6118411;23;20579;-74